sensor_id;sensor_type;location;lat;lon;timestamp;P1;durP1;ratioP1;P2;durP2;ratioP2
4517;SDS011;2271;49.464;11.070;2023-04-25T00:01:00;2.78;;;2.20;;
4517;SDS011;2271;49.464;11.070;2023-04-25T00:03:27;3.40;;;2.40;;
4517;SDS011;2271;49.464;11.070;2023-04-25T00:05:54;3.63;;;2.45;;
4517;SDS011;2271;49.464;11.070;2023-04-25T00:08:21;5.32;;;2.50;;
4517;SDS011;2271;49.464;11.070;2023-04-25T00:10:47;6.13;;;3.28;;
4517;SDS011;2271;49.464;11.070;2023-04-25T00:13:14;3.03;;;2.72;;
4517;SDS011;2271;49.464;11.070;2023-04-25T00:15:42;3.42;;;2.63;;
4517;SDS011;2271;49.464;11.070;2023-04-25T00:18:08;3.60;;;2.93;;
4517;SDS011;2271;49.464;11.070;2023-04-25T00:20:34;2.85;;;2.40;;
4517;SDS011;2271;49.464;11.070;2023-04-25T00:23:00;4.22;;;2.33;;
4517;SDS011;2271;49.464;11.070;2023-04-25T00:25:26;3.00;;;2.70;;
4517;SDS011;2271;49.464;11.070;2023-04-25T00:27:51;3.08;;;2.40;;
4517;SDS011;2271;49.464;11.070;2023-04-25T00:30:17;3.72;;;2.55;;
4517;SDS011;2271;49.464;11.070;2023-04-25T00:32:43;3.28;;;2.45;;
4517;SDS011;2271;49.464;11.070;2023-04-25T00:35:09;4.25;;;2.72;;
4517;SDS011;2271;49.464;11.070;2023-04-25T00:37:35;4.40;;;2.35;;
4517;SDS011;2271;49.464;11.070;2023-04-25T00:40:00;3.70;;;2.85;;
4517;SDS011;2271;49.464;11.070;2023-04-25T00:42:26;3.17;;;2.40;;
4517;SDS011;2271;49.464;11.070;2023-04-25T00:44:53;2.40;;;2.20;;
4517;SDS011;2271;49.464;11.070;2023-04-25T00:47:19;3.72;;;2.30;;
4517;SDS011;2271;49.464;11.070;2023-04-25T00:49:45;2.70;;;2.30;;
4517;SDS011;2271;49.464;11.070;2023-04-25T00:52:11;2.50;;;2.30;;
4517;SDS011;2271;49.464;11.070;2023-04-25T00:54:37;2.92;;;2.67;;
4517;SDS011;2271;49.464;11.070;2023-04-25T00:57:03;3.47;;;2.20;;
4517;SDS011;2271;49.464;11.070;2023-04-25T00:59:29;4.40;;;2.30;;
4517;SDS011;2271;49.464;11.070;2023-04-25T01:01:55;3.72;;;2.35;;
4517;SDS011;2271;49.464;11.070;2023-04-25T01:04:21;3.42;;;2.28;;
4517;SDS011;2271;49.464;11.070;2023-04-25T01:06:47;3.17;;;2.50;;
4517;SDS011;2271;49.464;11.070;2023-04-25T01:09:13;3.08;;;2.28;;
4517;SDS011;2271;49.464;11.070;2023-04-25T01:11:39;2.40;;;2.20;;
4517;SDS011;2271;49.464;11.070;2023-04-25T01:14:05;5.20;;;2.40;;
4517;SDS011;2271;49.464;11.070;2023-04-25T01:16:31;2.17;;;1.98;;
4517;SDS011;2271;49.464;11.070;2023-04-25T01:18:58;3.97;;;2.65;;
4517;SDS011;2271;49.464;11.070;2023-04-25T01:21:24;2.88;;;2.25;;
4517;SDS011;2271;49.464;11.070;2023-04-25T01:23:52;3.88;;;1.95;;
4517;SDS011;2271;49.464;11.070;2023-04-25T01:26:18;3.33;;;2.10;;
4517;SDS011;2271;49.464;11.070;2023-04-25T01:28:46;2.60;;;2.00;;
4517;SDS011;2271;49.464;11.070;2023-04-25T01:31:12;3.65;;;2.17;;
4517;SDS011;2271;49.464;11.070;2023-04-25T01:33:39;4.53;;;2.08;;
4517;SDS011;2271;49.464;11.070;2023-04-25T01:36:05;2.60;;;2.15;;
4517;SDS011;2271;49.464;11.070;2023-04-25T01:38:31;3.17;;;2.42;;
4517;SDS011;2271;49.464;11.070;2023-04-25T01:40:56;3.20;;;1.80;;
4517;SDS011;2271;49.464;11.070;2023-04-25T01:43:23;2.10;;;1.90;;
4517;SDS011;2271;49.464;11.070;2023-04-25T01:45:49;2.57;;;1.60;;
4517;SDS011;2271;49.464;11.070;2023-04-25T01:48:15;5.70;;;2.30;;
4517;SDS011;2271;49.464;11.070;2023-04-25T01:50:41;2.20;;;2.00;;
4517;SDS011;2271;49.464;11.070;2023-04-25T01:53:06;4.67;;;2.30;;
4517;SDS011;2271;49.464;11.070;2023-04-25T01:55:36;3.43;;;2.10;;
4517;SDS011;2271;49.464;11.070;2023-04-25T01:58:04;2.10;;;1.90;;
4517;SDS011;2271;49.464;11.070;2023-04-25T02:00:37;2.70;;;2.23;;
4517;SDS011;2271;49.464;11.070;2023-04-25T02:03:04;2.87;;;2.17;;
4517;SDS011;2271;49.464;11.070;2023-04-25T02:05:37;3.50;;;1.77;;
4517;SDS011;2271;49.464;11.070;2023-04-25T02:08:04;2.10;;;1.90;;
4517;SDS011;2271;49.464;11.070;2023-04-25T02:10:31;2.80;;;2.03;;
4517;SDS011;2271;49.464;11.070;2023-04-25T02:12:57;2.03;;;1.83;;
4517;SDS011;2271;49.464;11.070;2023-04-25T02:15:23;2.40;;;2.20;;
4517;SDS011;2271;49.464;11.070;2023-04-25T02:17:48;3.27;;;2.27;;
4517;SDS011;2271;49.464;11.070;2023-04-25T02:20:14;2.13;;;1.93;;
4517;SDS011;2271;49.464;11.070;2023-04-25T02:22:41;2.90;;;2.53;;
4517;SDS011;2271;49.464;11.070;2023-04-25T02:25:07;2.38;;;2.17;;
4517;SDS011;2271;49.464;11.070;2023-04-25T02:27:34;3.80;;;2.03;;
4517;SDS011;2271;49.464;11.070;2023-04-25T02:30:00;2.30;;;2.10;;
4517;SDS011;2271;49.464;11.070;2023-04-25T02:32:25;6.63;;;2.20;;
4517;SDS011;2271;49.464;11.070;2023-04-25T02:34:52;2.50;;;2.17;;
4517;SDS011;2271;49.464;11.070;2023-04-25T02:37:17;6.23;;;2.13;;
4517;SDS011;2271;49.464;11.070;2023-04-25T02:39:43;7.03;;;3.80;;
4517;SDS011;2271;49.464;11.070;2023-04-25T02:42:09;5.63;;;3.10;;
4517;SDS011;2271;49.464;11.070;2023-04-25T02:44:34;9.65;;;3.13;;
4517;SDS011;2271;49.464;11.070;2023-04-25T02:47:00;5.45;;;2.75;;
4517;SDS011;2271;49.464;11.070;2023-04-25T02:49:25;11.80;;;2.70;;
4517;SDS011;2271;49.464;11.070;2023-04-25T02:51:51;4.78;;;2.80;;
4517;SDS011;2271;49.464;11.070;2023-04-25T02:54:17;3.15;;;2.80;;
4517;SDS011;2271;49.464;11.070;2023-04-25T02:56:42;4.22;;;2.92;;
4517;SDS011;2271;49.464;11.070;2023-04-25T02:59:08;2.95;;;2.65;;
4517;SDS011;2271;49.464;11.070;2023-04-25T03:01:33;4.72;;;2.65;;
4517;SDS011;2271;49.464;11.070;2023-04-25T03:03:59;3.92;;;3.22;;
4517;SDS011;2271;49.464;11.070;2023-04-25T03:06:25;3.83;;;3.35;;
4517;SDS011;2271;49.464;11.070;2023-04-25T03:08:50;3.55;;;3.00;;
4517;SDS011;2271;49.464;11.070;2023-04-25T03:11:17;3.93;;;2.80;;
4517;SDS011;2271;49.464;11.070;2023-04-25T03:13:45;4.45;;;3.10;;
4517;SDS011;2271;49.464;11.070;2023-04-25T03:16:10;4.70;;;3.37;;
4517;SDS011;2271;49.464;11.070;2023-04-25T03:18:36;4.13;;;3.67;;
4517;SDS011;2271;49.464;11.070;2023-04-25T03:21:02;3.72;;;3.30;;
4517;SDS011;2271;49.464;11.070;2023-04-25T03:23:27;6.03;;;3.70;;
4517;SDS011;2271;49.464;11.070;2023-04-25T03:25:53;5.33;;;3.73;;
4517;SDS011;2271;49.464;11.070;2023-04-25T03:28:19;3.88;;;3.47;;
4517;SDS011;2271;49.464;11.070;2023-04-25T03:30:45;4.77;;;3.80;;
4517;SDS011;2271;49.464;11.070;2023-04-25T03:33:10;5.87;;;3.63;;
4517;SDS011;2271;49.464;11.070;2023-04-25T03:35:36;4.50;;;3.28;;
4517;SDS011;2271;49.464;11.070;2023-04-25T03:38:02;4.30;;;3.47;;
4517;SDS011;2271;49.464;11.070;2023-04-25T03:40:27;4.90;;;3.50;;
4517;SDS011;2271;49.464;11.070;2023-04-25T03:42:53;5.67;;;4.47;;
4517;SDS011;2271;49.464;11.070;2023-04-25T03:45:18;4.43;;;4.03;;
4517;SDS011;2271;49.464;11.070;2023-04-25T03:47:44;4.27;;;3.87;;
4517;SDS011;2271;49.464;11.070;2023-04-25T03:50:10;6.27;;;4.43;;
4517;SDS011;2271;49.464;11.070;2023-04-25T03:52:35;3.80;;;3.40;;
4517;SDS011;2271;49.464;11.070;2023-04-25T03:55:01;4.78;;;3.53;;
4517;SDS011;2271;49.464;11.070;2023-04-25T03:57:27;6.77;;;4.40;;
4517;SDS011;2271;49.464;11.070;2023-04-25T03:59:52;4.97;;;4.07;;
4517;SDS011;2271;49.464;11.070;2023-04-25T04:02:18;6.33;;;4.70;;
4517;SDS011;2271;49.464;11.070;2023-04-25T04:04:43;4.60;;;3.90;;
4517;SDS011;2271;49.464;11.070;2023-04-25T04:07:09;5.33;;;3.73;;
4517;SDS011;2271;49.464;11.070;2023-04-25T04:09:35;6.23;;;4.10;;
4517;SDS011;2271;49.464;11.070;2023-04-25T04:12:00;4.45;;;3.65;;
4517;SDS011;2271;49.464;11.070;2023-04-25T04:14:26;4.37;;;3.57;;
4517;SDS011;2271;49.464;11.070;2023-04-25T04:16:52;4.33;;;3.90;;
4517;SDS011;2271;49.464;11.070;2023-04-25T04:19:17;4.93;;;3.70;;
4517;SDS011;2271;49.464;11.070;2023-04-25T04:21:43;4.03;;;3.60;;
4517;SDS011;2271;49.464;11.070;2023-04-25T04:24:09;3.70;;;3.40;;
4517;SDS011;2271;49.464;11.070;2023-04-25T04:26:35;8.60;;;4.63;;
4517;SDS011;2271;49.464;11.070;2023-04-25T04:29:02;3.97;;;3.60;;
4517;SDS011;2271;49.464;11.070;2023-04-25T04:31:27;9.47;;;4.30;;
4517;SDS011;2271;49.464;11.070;2023-04-25T04:33:54;4.93;;;4.07;;
4517;SDS011;2271;49.464;11.070;2023-04-25T04:36:20;7.30;;;4.10;;
4517;SDS011;2271;49.464;11.070;2023-04-25T04:38:48;5.93;;;5.10;;
4517;SDS011;2271;49.464;11.070;2023-04-25T04:41:13;6.87;;;4.57;;
4517;SDS011;2271;49.464;11.070;2023-04-25T04:43:39;6.63;;;4.50;;
4517;SDS011;2271;49.464;11.070;2023-04-25T04:46:05;7.03;;;4.63;;
4517;SDS011;2271;49.464;11.070;2023-04-25T04:48:31;7.37;;;3.90;;
4517;SDS011;2271;49.464;11.070;2023-04-25T04:50:59;6.87;;;4.83;;
4517;SDS011;2271;49.464;11.070;2023-04-25T04:53:25;4.30;;;3.90;;
4517;SDS011;2271;49.464;11.070;2023-04-25T04:55:51;7.67;;;5.10;;
4517;SDS011;2271;49.464;11.070;2023-04-25T04:58:16;5.37;;;4.87;;
4517;SDS011;2271;49.464;11.070;2023-04-25T05:00:42;5.70;;;5.07;;
4517;SDS011;2271;49.464;11.070;2023-04-25T05:03:08;5.17;;;4.50;;
4517;SDS011;2271;49.464;11.070;2023-04-25T05:05:33;6.07;;;4.70;;
4517;SDS011;2271;49.464;11.070;2023-04-25T05:07:59;5.90;;;5.00;;
4517;SDS011;2271;49.464;11.070;2023-04-25T05:10:25;7.47;;;4.60;;
4517;SDS011;2271;49.464;11.070;2023-04-25T05:12:51;5.53;;;4.20;;
4517;SDS011;2271;49.464;11.070;2023-04-25T05:15:16;5.70;;;4.53;;
4517;SDS011;2271;49.464;11.070;2023-04-25T05:17:42;3.97;;;3.67;;
4517;SDS011;2271;49.464;11.070;2023-04-25T05:20:08;8.20;;;4.80;;
4517;SDS011;2271;49.464;11.070;2023-04-25T05:22:34;6.30;;;5.03;;
4517;SDS011;2271;49.464;11.070;2023-04-25T05:25:00;7.03;;;4.40;;
4517;SDS011;2271;49.464;11.070;2023-04-25T05:27:26;6.70;;;4.17;;
4517;SDS011;2271;49.464;11.070;2023-04-25T05:29:51;6.63;;;4.90;;
4517;SDS011;2271;49.464;11.070;2023-04-25T05:32:17;5.70;;;4.57;;
4517;SDS011;2271;49.464;11.070;2023-04-25T05:34:43;5.53;;;4.40;;
4517;SDS011;2271;49.464;11.070;2023-04-25T05:37:09;4.47;;;3.70;;
4517;SDS011;2271;49.464;11.070;2023-04-25T05:39:35;5.67;;;3.67;;
4517;SDS011;2271;49.464;11.070;2023-04-25T05:42:00;4.00;;;3.60;;
4517;SDS011;2271;49.464;11.070;2023-04-25T05:44:26;4.63;;;3.57;;
4517;SDS011;2271;49.464;11.070;2023-04-25T05:46:52;8.57;;;4.40;;
4517;SDS011;2271;49.464;11.070;2023-04-25T05:49:17;3.87;;;3.43;;
4517;SDS011;2271;49.464;11.070;2023-04-25T05:51:43;10.20;;;4.20;;
4517;SDS011;2271;49.464;11.070;2023-04-25T05:54:08;4.30;;;3.90;;
4517;SDS011;2271;49.464;11.070;2023-04-25T05:56:34;4.23;;;3.83;;
4517;SDS011;2271;49.464;11.070;2023-04-25T05:59:00;4.93;;;4.10;;
4517;SDS011;2271;49.464;11.070;2023-04-25T06:01:26;4.93;;;3.90;;
4517;SDS011;2271;49.464;11.070;2023-04-25T06:03:51;4.70;;;3.70;;
4517;SDS011;2271;49.464;11.070;2023-04-25T06:06:17;7.30;;;4.43;;
4517;SDS011;2271;49.464;11.070;2023-04-25T06:08:43;5.73;;;3.97;;
4517;SDS011;2271;49.464;11.070;2023-04-25T06:11:09;4.80;;;4.03;;
4517;SDS011;2271;49.464;11.070;2023-04-25T06:13:34;5.00;;;3.80;;
4517;SDS011;2271;49.464;11.070;2023-04-25T06:16:00;5.13;;;3.87;;
4517;SDS011;2271;49.464;11.070;2023-04-25T06:18:25;5.40;;;3.77;;
4517;SDS011;2271;49.464;11.070;2023-04-25T06:20:51;6.67;;;4.60;;
4517;SDS011;2271;49.464;11.070;2023-04-25T06:23:16;4.30;;;3.90;;
4517;SDS011;2271;49.464;11.070;2023-04-25T06:25:42;4.03;;;3.60;;
4517;SDS011;2271;49.464;11.070;2023-04-25T06:28:08;4.50;;;4.10;;
4517;SDS011;2271;49.464;11.070;2023-04-25T06:30:34;5.43;;;4.43;;
4517;SDS011;2271;49.464;11.070;2023-04-25T06:33:00;4.27;;;3.87;;
4517;SDS011;2271;49.464;11.070;2023-04-25T06:35:25;5.67;;;4.70;;
4517;SDS011;2271;49.464;11.070;2023-04-25T06:37:51;6.43;;;4.57;;
4517;SDS011;2271;49.464;11.070;2023-04-25T06:40:16;5.40;;;4.37;;
4517;SDS011;2271;49.464;11.070;2023-04-25T06:42:42;6.43;;;4.57;;
4517;SDS011;2271;49.464;11.070;2023-04-25T06:45:08;8.77;;;5.27;;
4517;SDS011;2271;49.464;11.070;2023-04-25T06:47:34;5.50;;;4.90;;
4517;SDS011;2271;49.464;11.070;2023-04-25T06:49:59;5.43;;;4.93;;
4517;SDS011;2271;49.464;11.070;2023-04-25T06:52:25;9.70;;;5.60;;
4517;SDS011;2271;49.464;11.070;2023-04-25T06:54:51;9.90;;;4.90;;
4517;SDS011;2271;49.464;11.070;2023-04-25T06:57:16;9.43;;;5.83;;
4517;SDS011;2271;49.464;11.070;2023-04-25T06:59:42;13.07;;;5.67;;
4517;SDS011;2271;49.464;11.070;2023-04-25T07:02:07;7.03;;;5.23;;
4517;SDS011;2271;49.464;11.070;2023-04-25T07:04:33;8.68;;;5.40;;
4517;SDS011;2271;49.464;11.070;2023-04-25T07:06:59;8.13;;;4.47;;
4517;SDS011;2271;49.464;11.070;2023-04-25T07:09:25;7.80;;;5.13;;
4517;SDS011;2271;49.464;11.070;2023-04-25T07:11:51;6.07;;;4.47;;
4517;SDS011;2271;49.464;11.070;2023-04-25T07:14:17;8.20;;;5.18;;
4517;SDS011;2271;49.464;11.070;2023-04-25T07:16:42;8.60;;;4.87;;
4517;SDS011;2271;49.464;11.070;2023-04-25T07:19:08;4.63;;;3.80;;
4517;SDS011;2271;49.464;11.070;2023-04-25T07:21:33;4.50;;;3.90;;
4517;SDS011;2271;49.464;11.070;2023-04-25T07:24:01;5.53;;;4.33;;
4517;SDS011;2271;49.464;11.070;2023-04-25T07:26:27;3.83;;;3.47;;
4517;SDS011;2271;49.464;11.070;2023-04-25T07:28:52;3.10;;;2.80;;
4517;SDS011;2271;49.464;11.070;2023-04-25T07:31:19;3.17;;;2.60;;
4517;SDS011;2271;49.464;11.070;2023-04-25T07:33:45;3.93;;;2.30;;
4517;SDS011;2271;49.464;11.070;2023-04-25T07:36:11;2.70;;;2.27;;
4517;SDS011;2271;49.464;11.070;2023-04-25T07:38:37;6.23;;;2.60;;
4517;SDS011;2271;49.464;11.070;2023-04-25T07:41:03;5.90;;;2.80;;
4517;SDS011;2271;49.464;11.070;2023-04-25T07:43:29;3.03;;;2.43;;
4517;SDS011;2271;49.464;11.070;2023-04-25T07:45:55;4.37;;;2.80;;
4517;SDS011;2271;49.464;11.070;2023-04-25T07:48:21;3.07;;;2.73;;
4517;SDS011;2271;49.464;11.070;2023-04-25T07:50:47;4.93;;;2.60;;
4517;SDS011;2271;49.464;11.070;2023-04-25T07:53:13;2.57;;;2.37;;
4517;SDS011;2271;49.464;11.070;2023-04-25T07:55:38;3.00;;;2.70;;
4517;SDS011;2271;49.464;11.070;2023-04-25T07:58:07;3.10;;;2.80;;
4517;SDS011;2271;49.464;11.070;2023-04-25T08:00:33;5.00;;;3.03;;
4517;SDS011;2271;49.464;11.070;2023-04-25T08:02:59;5.93;;;3.63;;
4517;SDS011;2271;49.464;11.070;2023-04-25T08:05:25;4.07;;;3.67;;
4517;SDS011;2271;49.464;11.070;2023-04-25T08:07:50;4.80;;;3.23;;
4517;SDS011;2271;49.464;11.070;2023-04-25T08:10:16;3.87;;;3.13;;
4517;SDS011;2271;49.464;11.070;2023-04-25T08:12:42;3.33;;;2.80;;
4517;SDS011;2271;49.464;11.070;2023-04-25T08:15:07;3.53;;;2.77;;
4517;SDS011;2271;49.464;11.070;2023-04-25T08:17:34;4.17;;;3.20;;
4517;SDS011;2271;49.464;11.070;2023-04-25T08:19:59;3.97;;;2.20;;
4517;SDS011;2271;49.464;11.070;2023-04-25T08:22:25;3.20;;;2.33;;
4517;SDS011;2271;49.464;11.070;2023-04-25T08:24:50;3.00;;;2.53;;
4517;SDS011;2271;49.464;11.070;2023-04-25T08:27:17;2.77;;;2.30;;
4517;SDS011;2271;49.464;11.070;2023-04-25T08:29:43;5.03;;;2.83;;
4517;SDS011;2271;49.464;11.070;2023-04-25T08:32:09;5.57;;;2.90;;
4517;SDS011;2271;49.464;11.070;2023-04-25T08:34:34;2.30;;;2.00;;
4517;SDS011;2271;49.464;11.070;2023-04-25T08:37:01;2.60;;;2.40;;
4517;SDS011;2271;49.464;11.070;2023-04-25T08:39:29;3.63;;;2.70;;
4517;SDS011;2271;49.464;11.070;2023-04-25T08:41:54;6.50;;;3.15;;
4517;SDS011;2271;49.464;11.070;2023-04-25T08:44:21;2.88;;;2.58;;
4517;SDS011;2271;49.464;11.070;2023-04-25T08:46:48;8.20;;;3.22;;
4517;SDS011;2271;49.464;11.070;2023-04-25T08:49:14;5.70;;;2.83;;
4517;SDS011;2271;49.464;11.070;2023-04-25T08:51:46;4.78;;;2.83;;
4517;SDS011;2271;49.464;11.070;2023-04-25T08:54:12;5.15;;;3.38;;
4517;SDS011;2271;49.464;11.070;2023-04-25T08:56:41;2.72;;;2.53;;
4517;SDS011;2271;49.464;11.070;2023-04-25T08:59:09;3.28;;;2.97;;
4517;SDS011;2271;49.464;11.070;2023-04-25T09:01:36;5.47;;;2.95;;
4517;SDS011;2271;49.464;11.070;2023-04-25T09:04:02;5.05;;;3.80;;
4517;SDS011;2271;49.464;11.070;2023-04-25T09:06:30;6.65;;;3.65;;
4517;SDS011;2271;49.464;11.070;2023-04-25T09:09:03;5.85;;;3.33;;
4517;SDS011;2271;49.464;11.070;2023-04-25T09:11:30;3.65;;;3.33;;
4517;SDS011;2271;49.464;11.070;2023-04-25T09:19:26;5.53;;;4.00;;
4517;SDS011;2271;49.464;11.070;2023-04-25T09:21:58;4.67;;;4.00;;
4517;SDS011;2271;49.464;11.070;2023-04-25T09:24:32;7.03;;;3.85;;
4517;SDS011;2271;49.464;11.070;2023-04-25T09:27:04;4.25;;;3.78;;
4517;SDS011;2271;49.464;11.070;2023-04-25T09:29:31;4.65;;;3.55;;
4517;SDS011;2271;49.464;11.070;2023-04-25T09:32:15;4.10;;;3.38;;
4517;SDS011;2271;49.464;11.070;2023-04-25T09:34:41;6.28;;;3.72;;
4517;SDS011;2271;49.464;11.070;2023-04-25T09:37:09;4.15;;;3.33;;
4517;SDS011;2271;49.464;11.070;2023-04-25T09:39:36;5.53;;;3.25;;
4517;SDS011;2271;49.464;11.070;2023-04-25T09:42:03;6.03;;;3.40;;
4517;SDS011;2271;49.464;11.070;2023-04-25T09:44:30;5.22;;;3.35;;
4517;SDS011;2271;49.464;11.070;2023-04-25T09:46:56;5.05;;;3.03;;
4517;SDS011;2271;49.464;11.070;2023-04-25T09:49:22;3.03;;;2.70;;
4517;SDS011;2271;49.464;11.070;2023-04-25T09:51:54;3.33;;;2.80;;
4517;SDS011;2271;49.464;11.070;2023-04-25T09:54:21;5.22;;;3.08;;
4517;SDS011;2271;49.464;11.070;2023-04-25T09:56:48;4.72;;;3.33;;
4517;SDS011;2271;49.464;11.070;2023-04-25T09:59:16;3.70;;;2.92;;
4517;SDS011;2271;49.464;11.070;2023-04-25T10:01:48;6.43;;;3.00;;
4517;SDS011;2271;49.464;11.070;2023-04-25T10:04:22;2.85;;;2.65;;
4517;SDS011;2271;49.464;11.070;2023-04-25T10:06:53;4.60;;;2.50;;
4517;SDS011;2271;49.464;11.070;2023-04-25T10:09:21;3.17;;;2.60;;
4517;SDS011;2271;49.464;11.070;2023-04-25T10:11:50;6.88;;;3.33;;
4517;SDS011;2271;49.464;11.070;2023-04-25T10:14:16;5.47;;;3.42;;
4517;SDS011;2271;49.464;11.070;2023-04-25T10:16:43;5.93;;;2.88;;
4517;SDS011;2271;49.464;11.070;2023-04-25T10:19:10;5.60;;;3.08;;
4517;SDS011;2271;49.464;11.070;2023-04-25T10:21:40;5.93;;;2.88;;
4517;SDS011;2271;49.464;11.070;2023-04-25T10:24:13;3.75;;;2.70;;
4517;SDS011;2271;49.464;11.070;2023-04-25T10:26:40;3.88;;;2.40;;
4517;SDS011;2271;49.464;11.070;2023-04-25T10:29:06;3.50;;;2.22;;
4517;SDS011;2271;49.464;11.070;2023-04-25T10:31:31;2.75;;;1.80;;
4517;SDS011;2271;49.464;11.070;2023-04-25T10:33:59;3.35;;;2.42;;
4517;SDS011;2271;49.464;11.070;2023-04-25T10:36:26;2.00;;;1.58;;
4517;SDS011;2271;49.464;11.070;2023-04-25T10:38:56;2.55;;;1.85;;
4517;SDS011;2271;49.464;11.070;2023-04-25T10:41:32;2.08;;;1.58;;
4517;SDS011;2271;49.464;11.070;2023-04-25T10:44:17;3.05;;;1.50;;
4517;SDS011;2271;49.464;11.070;2023-04-25T10:46:43;1.40;;;1.30;;
4517;SDS011;2271;49.464;11.070;2023-04-25T10:49:10;5.63;;;1.77;;
4517;SDS011;2271;49.464;11.070;2023-04-25T10:51:58;5.63;;;2.13;;
4517;SDS011;2271;49.464;11.070;2023-04-25T10:54:41;2.40;;;1.65;;
4517;SDS011;2271;49.464;11.070;2023-04-25T10:57:32;3.30;;;1.67;;
4517;SDS011;2271;49.464;11.070;2023-04-25T11:00:11;2.67;;;1.63;;
4517;SDS011;2271;49.464;11.070;2023-04-25T11:05:10;2.30;;;1.52;;
4517;SDS011;2271;49.464;11.070;2023-04-25T11:10:14;6.82;;;1.67;;
4517;SDS011;2271;49.464;11.070;2023-04-25T11:12:40;1.58;;;1.48;;
4517;SDS011;2271;49.464;11.070;2023-04-25T11:15:06;2.17;;;1.30;;
4517;SDS011;2271;49.464;11.070;2023-04-25T11:17:33;3.35;;;1.42;;
4517;SDS011;2271;49.464;11.070;2023-04-25T11:19:59;1.48;;;1.15;;
4517;SDS011;2271;49.464;11.070;2023-04-25T11:22:26;2.47;;;1.23;;
4517;SDS011;2271;49.464;11.070;2023-04-25T11:24:52;1.20;;;1.10;;
4517;SDS011;2271;49.464;11.070;2023-04-25T11:27:18;1.92;;;1.38;;
4517;SDS011;2271;49.464;11.070;2023-04-25T11:29:44;2.65;;;1.40;;
4517;SDS011;2271;49.464;11.070;2023-04-25T11:32:12;1.55;;;1.13;;
4517;SDS011;2271;49.464;11.070;2023-04-25T11:34:42;2.50;;;1.50;;
4517;SDS011;2271;49.464;11.070;2023-04-25T11:37:08;2.83;;;1.27;;
4517;SDS011;2271;49.464;11.070;2023-04-25T11:39:36;4.03;;;1.25;;
4517;SDS011;2271;49.464;11.070;2023-04-25T11:42:01;3.33;;;1.30;;
4517;SDS011;2271;49.464;11.070;2023-04-25T11:44:30;2.78;;;1.20;;
4517;SDS011;2271;49.464;11.070;2023-04-25T11:46:56;2.00;;;1.33;;
4517;SDS011;2271;49.464;11.070;2023-04-25T11:49:22;1.20;;;1.02;;
4517;SDS011;2271;49.464;11.070;2023-04-25T11:51:49;1.67;;;1.00;;
4517;SDS011;2271;49.464;11.070;2023-04-25T11:54:15;2.70;;;0.68;;
4517;SDS011;2271;49.464;11.070;2023-04-25T11:56:44;2.13;;;1.00;;
4517;SDS011;2271;49.464;11.070;2023-04-25T11:59:11;2.92;;;0.60;;
4517;SDS011;2271;49.464;11.070;2023-04-25T12:01:38;0.82;;;0.73;;
4517;SDS011;2271;49.464;11.070;2023-04-25T12:04:11;1.40;;;0.95;;
4517;SDS011;2271;49.464;11.070;2023-04-25T12:06:38;2.83;;;1.02;;
4517;SDS011;2271;49.464;11.070;2023-04-25T12:09:07;5.75;;;1.00;;
4517;SDS011;2271;49.464;11.070;2023-04-25T12:14:09;1.52;;;1.10;;
4517;SDS011;2271;49.464;11.070;2023-04-25T12:16:46;0.88;;;0.82;;
4517;SDS011;2271;49.464;11.070;2023-04-25T12:19:14;0.80;;;0.80;;
4517;SDS011;2271;49.464;11.070;2023-04-25T12:21:40;3.33;;;0.90;;
4517;SDS011;2271;49.464;11.070;2023-04-25T12:24:10;1.15;;;0.90;;
4517;SDS011;2271;49.464;11.070;2023-04-25T12:26:47;2.65;;;1.25;;
4517;SDS011;2271;49.464;11.070;2023-04-25T12:29:19;1.00;;;0.90;;
4517;SDS011;2271;49.464;11.070;2023-04-25T12:31:46;3.03;;;1.13;;
4517;SDS011;2271;49.464;11.070;2023-04-25T12:34:12;1.92;;;1.13;;
4517;SDS011;2271;49.464;11.070;2023-04-25T12:36:38;1.70;;;1.10;;
4517;SDS011;2271;49.464;11.070;2023-04-25T12:39:04;2.85;;;1.10;;
4517;SDS011;2271;49.464;11.070;2023-04-25T12:41:30;0.95;;;0.88;;
4517;SDS011;2271;49.464;11.070;2023-04-25T12:43:56;2.13;;;1.02;;
4517;SDS011;2271;49.464;11.070;2023-04-25T12:46:21;0.98;;;0.90;;
4517;SDS011;2271;49.464;11.070;2023-04-25T12:48:50;1.15;;;1.02;;
4517;SDS011;2271;49.464;11.070;2023-04-25T12:51:15;1.27;;;1.17;;
4517;SDS011;2271;49.464;11.070;2023-04-25T12:53:41;2.60;;;1.20;;
4517;SDS011;2271;49.464;11.070;2023-04-25T12:56:10;1.95;;;0.90;;
4517;SDS011;2271;49.464;11.070;2023-04-25T12:58:36;1.40;;;1.30;;
4517;SDS011;2271;49.464;11.070;2023-04-25T13:01:01;1.17;;;1.08;;
4517;SDS011;2271;49.464;11.070;2023-04-25T13:03:27;2.45;;;1.15;;
4517;SDS011;2271;49.464;11.070;2023-04-25T13:05:52;2.72;;;1.10;;
4517;SDS011;2271;49.464;11.070;2023-04-25T13:08:19;1.98;;;0.98;;
4517;SDS011;2271;49.464;11.070;2023-04-25T13:10:44;1.08;;;1.05;;
4517;SDS011;2271;49.464;11.070;2023-04-25T13:13:10;1.98;;;1.10;;
4517;SDS011;2271;49.464;11.070;2023-04-25T13:15:36;3.38;;;1.35;;
4517;SDS011;2271;49.464;11.070;2023-04-25T13:18:02;1.83;;;1.40;;
4517;SDS011;2271;49.464;11.070;2023-04-25T13:20:30;2.65;;;1.08;;
4517;SDS011;2271;49.464;11.070;2023-04-25T13:22:56;1.42;;;1.10;;
4517;SDS011;2271;49.464;11.070;2023-04-25T13:25:22;1.48;;;1.08;;
4517;SDS011;2271;49.464;11.070;2023-04-25T13:27:48;1.20;;;1.00;;
4517;SDS011;2271;49.464;11.070;2023-04-25T13:30:13;1.63;;;1.20;;
4517;SDS011;2271;49.464;11.070;2023-04-25T13:32:39;1.73;;;1.27;;
4517;SDS011;2271;49.464;11.070;2023-04-25T13:35:07;5.07;;;1.30;;
4517;SDS011;2271;49.464;11.070;2023-04-25T13:37:37;2.97;;;1.35;;
4517;SDS011;2271;49.464;11.070;2023-04-25T13:40:03;2.28;;;1.63;;
4517;SDS011;2271;49.464;11.070;2023-04-25T13:42:34;3.30;;;1.92;;
4517;SDS011;2271;49.464;11.070;2023-04-25T13:45:00;4.40;;;1.50;;
4517;SDS011;2271;49.464;11.070;2023-04-25T13:47:26;4.53;;;1.40;;
4517;SDS011;2271;49.464;11.070;2023-04-25T13:49:52;1.83;;;1.45;;
4517;SDS011;2271;49.464;11.070;2023-04-25T13:52:18;2.05;;;1.20;;
4517;SDS011;2271;49.464;11.070;2023-04-25T13:54:44;1.80;;;1.70;;
4517;SDS011;2271;49.464;11.070;2023-04-25T13:57:09;2.40;;;1.52;;
4517;SDS011;2271;49.464;11.070;2023-04-25T13:59:36;2.22;;;1.50;;
4517;SDS011;2271;49.464;11.070;2023-04-25T14:02:02;4.32;;;2.10;;
4517;SDS011;2271;49.464;11.070;2023-04-25T14:04:28;2.70;;;1.80;;
4517;SDS011;2271;49.464;11.070;2023-04-25T14:06:54;5.13;;;1.58;;
4517;SDS011;2271;49.464;11.070;2023-04-25T14:09:21;2.05;;;1.42;;
4517;SDS011;2271;49.464;11.070;2023-04-25T14:11:50;2.45;;;1.60;;
4517;SDS011;2271;49.464;11.070;2023-04-25T14:14:20;2.35;;;2.08;;
4517;SDS011;2271;49.464;11.070;2023-04-25T14:16:47;2.72;;;1.90;;
4517;SDS011;2271;49.464;11.070;2023-04-25T14:19:13;2.55;;;1.65;;
4517;SDS011;2271;49.464;11.070;2023-04-25T14:21:40;1.83;;;1.70;;
4517;SDS011;2271;49.464;11.070;2023-04-25T14:24:05;2.33;;;1.60;;
4517;SDS011;2271;49.464;11.070;2023-04-25T14:26:33;5.88;;;2.60;;
4517;SDS011;2271;49.464;11.070;2023-04-25T14:28:59;2.65;;;2.08;;
4517;SDS011;2271;49.464;11.070;2023-04-25T14:31:25;2.22;;;1.52;;
4517;SDS011;2271;49.464;11.070;2023-04-25T14:33:50;2.42;;;1.58;;
4517;SDS011;2271;49.464;11.070;2023-04-25T14:36:16;3.35;;;1.88;;
4517;SDS011;2271;49.464;11.070;2023-04-25T14:38:42;3.42;;;2.03;;
4517;SDS011;2271;49.464;11.070;2023-04-25T14:41:07;2.47;;;1.95;;
4517;SDS011;2271;49.464;11.070;2023-04-25T14:43:34;3.28;;;2.28;;
4517;SDS011;2271;49.464;11.070;2023-04-25T14:46:00;2.30;;;1.75;;
4517;SDS011;2271;49.464;11.070;2023-04-25T14:48:26;2.17;;;1.83;;
4517;SDS011;2271;49.464;11.070;2023-04-25T14:50:52;4.00;;;2.17;;
4517;SDS011;2271;49.464;11.070;2023-04-25T14:53:17;3.08;;;2.35;;
4517;SDS011;2271;49.464;11.070;2023-04-25T14:55:43;2.95;;;2.28;;
4517;SDS011;2271;49.464;11.070;2023-04-25T14:58:09;2.63;;;1.88;;
4517;SDS011;2271;49.464;11.070;2023-04-25T15:00:34;3.75;;;2.60;;
4517;SDS011;2271;49.464;11.070;2023-04-25T15:03:00;2.47;;;2.10;;
4517;SDS011;2271;49.464;11.070;2023-04-25T15:05:26;5.03;;;2.05;;
4517;SDS011;2271;49.464;11.070;2023-04-25T15:07:51;2.28;;;2.08;;
4517;SDS011;2271;49.464;11.070;2023-04-25T15:10:17;2.55;;;2.00;;